Etusivu
METAR-TAF:

METAR-TAF

Lentoasemat :

Farnborough, Englanti

Leveyspiiri: 51-17N, Pituuspiiri: 000-46W, korkeus merenpinnasta: 65 m

Tämänhetkinen sää

Tämä raportti tehtiin 8 tuntia ja 59 minuuttia sitten, kello 18.50 UTC
Tuuli 3 kn etelästä/lounaasta
Lämpötila 9°C
Kosteus 93%
Ilmanpaine 1031 hPa
Näkyvyys 10 km tai enemmän
ei pilviä alle 1500 m:ssä eikä cumulonimbus-pilviä

METAR: EGLF 201850Z 21003KT CAVOK 09/08 Q1031

Aika: 04:49 (03:49 UTC)

Sääennuste

Tämä raportti tehtiin 13 tuntia ja 51 minuuttia sitten, kello 13.58 UTC
Ennuste voimassa 20. päivästä klo 15 UTC - 20. päivään klo 19 UTC
Tuuli 3 kn etelästä/lounaasta
Näkyvyys 10 km tai enemmän
ei pilviä alle 1500 m:ssä eikä cumulonimbus-pilviä
Todennäköisyys 30%
20. päivästä klo 18 UTC - 20. päivään klo 19 UTC
Näkyvyys: 8000 m

TAF: EGLF 201358Z 2015/2019 21003KT CAVOK PROB30 2018/2019 8000

Säähavainnot ja -ennusteet yli 4000 lentoasemalta (METAR- ja TAF-raportit).

Käytössä olevat sääasemat on merkitty karttaan keltaisilla ja punaisilla pisteillä.

Aseta hiiri pisteen päälle nähdäksesi sääaseman nimen.

Klikkaa sitten nähdäksesi säähavainnot ja -ennusteet.

Kartan vaihtaminen: klikkaa mustalla rastilla varustettuja vihreitä pisteitä, niin voit zoomata sisään; viivalla varustettua vihreää pistettä, niin voit zoomata ulos tai vihreitä nuolia, niin pääset viereisille kartoille.


METAR-TAF: